Login
Access
Login with your mtb-forum.it nickname and password.


You do not have an account? Sign up here for free

antoniocanecorso

Last training unit 09/10/2014
0
Followers
8 833 Km
itineraries
84 864 m
of total vertical gain
344
hours of riding
26.29 Km/h
average speed
143
average HR


09/10/2014 Show to everybody Allenamento 09-10-14 alle 05:46 18.48 Km 75 m 00:37:55 29.25 Km\h BIANCHI centostrade
29/09/2014 Show to everybody Allenamento 29-09-14 alle 13:29 25.17 Km 152 m 00:54:29 27.72 Km\h BIANCHI centostrade
26/09/2014 Show to everybody Allenamento 26-09-14 alle 05:51 18.56 Km 85 m 00:37:27 29.73 Km\h BIANCHI centostrade
20/09/2014 Show to everybody Allenamento 20-09-2014 alle 08:11:23.000 52.61 Km 102 m 01:56:07 27.19 Km\h BIANCHI centostrade
13/09/2014 Show to everybody Allenamento 13-09-2014 alle 09:40:47.000 64.33 Km 234 m 02:03:16 31.31 Km\h BIANCHI centostrade
04/09/2014 Show to everybody Allenamento 04-09-2014 alle 07:59:47.000 60.76 Km 706 m 02:20:21 25.98 Km\h BIANCHI centostrade
17/08/2014 Show to everybody Allenamento 17-08-2014 alle 07:34:58 95.75 Km 2014 m 03:33:22 26.93 Km\h BIANCHI centostrade
12/08/2014 Show to everybody Allenamento 12-08-2014 alle 05:35:00.000 147.71 Km 2031 m 05:43:33 25.8 Km\h BIANCHI centostrade
07/08/2014 Show to everybody Allenamento 07-08-2014 alle 13:33:40.000 98.68 Km 1055 m 03:28:05 28.45 Km\h BIANCHI centostrade
07/08/2014 Show to everybody Allenamento 07-08-2014 alle 04:59:30.000 18.51 Km 68 m 00:35:04 31.67 Km\h BIANCHI centostrade
31/07/2014 Show to everybody Allenamento 31-07-14 alle 12:49 52.26 Km 166 m 01:46:02 29.57 Km\h BIANCHI centostrade
31/07/2014 Show to everybody Allenamento 31-07-14 alle 05:01 18.51 Km 71 m 00:34:25 32.28 Km\h BIANCHI centostrade
11/07/2014 Show to everybody Allenamento 11-07-2014 alle 07:28:52.000 96.21 Km 1161 m 03:30:31 27.42 Km\h CANYON AEROAD CF F1O
28/06/2014 Show to everybody Allenamento 28-06-14 alle 06:56 91.06 Km 330 m 03:05:02 29.53 Km\h BIANCHI centostrade
27/06/2014 Show to everybody Allenamento 27-06-2014 alle 07:28:05.000 81.88 Km 493 m 02:58:05 27.59 Km\h CANYON AEROAD CF F1O
13/06/2014 Show to everybody Allenamento 13-06-14 alle 05:00 18.35 Km 81 m 00:33:39 32.72 Km\h CANYON AEROAD CF F1O
07/06/2014 Show to everybody Allenamento 07-06-14 alle 07:03 88.19 Km 190 m 02:55:09 30.21 Km\h BIANCHI centostrade
06/06/2014 Show to everybody Allenamento 06-06-14 alle 05:09 18.3 Km 84 m 00:34:35 31.75 Km\h CANYON AEROAD CF F1O
30/05/2014 Show to everybody Allenamento 30-05-14 alle 12:55 51.55 Km 321 m 01:41:27 30.49 Km\h BIANCHI centostrade
28/05/2014 Show to everybody Allenamento 28-05-14 alle 13:16 18.65 Km 141 m 00:34:56 32.04 Km\h BIANCHI centostrade
25/05/2014 Show to everybody Allenamento 25-05-2014 alle 05:35:32.000 137.17 Km 2003 m 05:36:33 24.46 Km\h BIANCHI centostrade
22/05/2014 Show to everybody Allenamento 22-05-2014 alle 07:02:29.000 141.42 Km 1855 m 05:49:44 24.26 Km\h BIANCHI centostrade
21/05/2014 Show to everybody Allenamento 21-05-2014 alle 08:15:18.000 56.88 Km 103 m 01:53:29 30.07 Km\h BIANCHI centostrade
20/05/2014 Show to everybody Allenamento 20-05-2014 alle 05:15:48.000 18.08 Km 90 m 00:33:51 32.04 Km\h BIANCHI centostrade
20/05/2014 Show to everybody Allenamento 20-05-2014 alle 13:20:22.000 81.06 Km 1083 m 02:56:51 27.5 Km\h BIANCHI centostrade
18/05/2014 Show to everybody Allenamento 18-05-2014 alle 07:08:51.000 104 Km 1153 m 03:47:28 27.43 Km\h CANYON AEROAD CF F1O
17/05/2014 Show to everybody Allenamento 17-05-14 alle 11:57 65.74 Km 798 m 02:13:14 29.6 Km\h CANYON AEROAD CF F1O
16/05/2014 Show to everybody Allenamento 16-05-14 alle 05:33 18.56 Km 97 m 00:36:38 30.39 Km\h CANYON AEROAD CF F1O
16/05/2014 Show to everybody Allenamento 16-05-14 alle 13:35 18.95 Km 132 m 00:39:49 28.56 Km\h CANYON AEROAD CF F1O
15/05/2014 Show to everybody Allenamento 15-05-14 alle 05:27 18.52 Km 80 m 00:34:49 31.91 Km\h CANYON AEROAD CF F1O
15/05/2014 Show to everybody Allenamento 15-05-14 alle 13:35 18.46 Km 140 m 00:34:40 31.94 Km\h CANYON AEROAD CF F1O
11/05/2014 Show to everybody Allenamento 11-05-14 alle 07:12 59.82 Km 711 m 02:03:14 29.13 Km\h CANYON AEROAD CF F1O
09/05/2014 Show to everybody Allenamento 09-05-14 alle 05:16 18.49 Km 88 m 00:34:41 31.99 Km\h CANYON AEROAD CF F1O
09/05/2014 Show to everybody Allenamento 09-05-14 alle 13:54 47.57 Km 475 m 01:37:35 29.25 Km\h BIANCHI centostrade
08/05/2014 Show to everybody Allenamento 08-05-14 alle 07:19 65.54 Km 134 m 02:13:30 29.45 Km\h CANYON AEROAD CF F1O
07/05/2014 Show to everybody Allenamento 07-05-14 alle 05:06 18.37 Km 91 m 00:33:57 32.46 Km\h CANYON AEROAD CF F1O
07/05/2014 Show to everybody Allenamento 07-05-14 alle 12:37 69.18 Km 889 m 02:39:18 26.06 Km\h CANYON AEROAD CF F1O
06/05/2014 Show to everybody Allenamento 06-05-14 alle 12:11 65.84 Km 526 m 02:20:37 28.09 Km\h CANYON AEROAD CF F1O
06/05/2014 Show to everybody Allenamento 06-05-14 alle 05:22 18.49 Km 78 m 00:37:54 29.27 Km\h CANYON AEROAD CF F1O
04/05/2014 Show to everybody Allenamento 04-05-14 alle 07:03 77.99 Km 855 m 02:44:10 28.5 Km\h BIANCHI centostrade
02/05/2014 Show to everybody Allenamento 02-05-14 alle 08:20 64.11 Km 143 m 02:17:10 28.04 Km\h BIANCHI centostrade
29/04/2014 Show to everybody Allenamento 29-04-14 alle 10:58 69.02 Km 1065 m 02:39:27 25.97 Km\h BIANCHI centostrade
25/04/2014 Show to everybody Allenamento 25-04-2014 alle 08:23:46 69.09 Km 1390 m 03:18:54 20.84 Km\h CANYON AEROAD CF F1O
24/04/2014 Show to everybody Allenamento 24-04-14 alle 14:51 50.31 Km 904 m 01:58:46 25.42 Km\h BIANCHI centostrade
17/04/2014 Show to everybody Allenamento 17-04-14 alle 04:52 18.63 Km 111 m 00:37:17 29.98 Km\h BIANCHI centostrade
17/04/2014 Show to everybody Allenamento 17-04-14 alle 12:25 18.76 Km 165 m 00:42:48 26.29 Km\h BIANCHI centostrade
16/04/2014 Show to everybody Allenamento 16-04-14 alle 04:59 18.5 Km 90 m 00:37:04 29.94 Km\h BIANCHI centostrade
16/04/2014 Show to everybody Allenamento 16-04-14 alle 12:57 47.83 Km 560 m 01:44:27 27.47 Km\h BIANCHI centostrade
08/04/2014 Show to everybody Allenamento 08-04-2014 alle 13:17:23.000 78.07 Km 280 m 02:39:13 29.42 Km\h CANYON AEROAD CF F1O
08/04/2014 Show to everybody Allenamento 08-04-2014 alle 05:20:45.000 18.51 Km 89 m 00:40:16 27.58 Km\h CANYON AEROAD CF F1O
06/04/2014 Show to everybody Allenamento 06-04-2014 alle 06:53:19.000 83.48 Km 1253 m 03:23:09 24.65 Km\h CANYON AEROAD CF F1O
05/04/2014 Show to everybody Allenamento 05-04-2014 alle 09:34:09.000 132.75 Km 626 m 04:34:45 28.99 Km\h CANYON AEROAD CF F1O
03/04/2014 Show to everybody Allenamento 03-04-2014 alle 08:37:05.000 21.77 Km 475 m 01:13:06 17.87 Km\h CANYON AEROAD CF F1O
03/04/2014 Show to everybody Allenamento 03-04-2014 alle 09:50:37.000 58.1 Km 355 m 02:04:32 27.99 Km\h CANYON AEROAD CF F1O
02/04/2014 Show to everybody Allenamento 02-04-2014 alle 08:05:41.000 100.1 Km 955 m 03:30:53 28.48 Km\h CANYON AEROAD CF F1O
01/04/2014 Show to everybody Allenamento 01-04-2014 alle 09:14:31.000 101.11 Km 1000 m 03:41:05 27.44 Km\h CANYON AEROAD CF F1O
30/03/2014 Show to everybody Allenamento 30-03-14 alle 09:09 91.61 Km 247 m 03:23:07 27.06 Km\h CANYON AEROAD CF F1O
29/03/2014 Show to everybody Allenamento 29-03-2014 alle 08:27:06.000 169.22 Km 2030 m 06:29:55 26.04 Km\h CANYON AEROAD CF F1O
28/03/2014 Show to everybody Allenamento 28-03-14 alle 11:11 34.69 Km 90 m 01:08:36 30.34 Km\h BIANCHI centostrade
28/03/2014 Show to everybody Allenamento 28-03-14 alle 10:23 11.53 Km 500 m 00:42:52 16.14 Km\h BIANCHI centostrade
28/03/2014 Show to everybody Allenamento 28-03-14 alle 09:40 18 Km 113 m 00:42:44 25.27 Km\h BIANCHI centostrade
26/03/2014 Show to everybody Allenamento 26-03-14 alle 09:14 86.07 Km 892 m 03:20:01 25.82 Km\h BIANCHI centostrade
25/03/2014 Show to everybody Allenamento 25-03-14 alle 09:49 84.09 Km 735 m 03:10:20 26.51 Km\h CANYON AEROAD CF F1O
20/03/2014 Show to everybody Allenamento 20-03-14 alle 14:08 56.02 Km 452 m 03:02:47 18.39 Km\h CANYON AEROAD CF F1O
20/03/2014 Show to everybody Allenamento 20-03-14 alle 05:44 13.42 Km 79 m 00:26:17 30.63 Km\h CANYON AEROAD CF F1O
19/03/2014 Show to everybody Allenamento 19-03-2014 alle 12:14:29.000 94.31 Km 729 m 03:11:44 29.51 Km\h CANYON AEROAD CF F1O
18/03/2014 Show to everybody Allenamento 18-03-2014 alle 06:00:38.000 13.41 Km 86 m 00:23:54 33.67 Km\h CANYON AEROAD CF F1O
18/03/2014 Show to everybody Allenamento 18-03-2014 alle 14:17:21.000 65.17 Km 199 m 02:24:41 27.02 Km\h CANYON AEROAD CF F1O
16/03/2014 Show to everybody Allenamento 16-03-2014 alle 07:22:55.000 120.33 Km 1517 m 04:35:00 26.25 Km\h BIANCHI centostrade
15/03/2014 Show to everybody Allenamento 15-03-2014 alle 08:56:25.000 111.05 Km 283 m 03:42:00 30.01 Km\h BIANCHI centostrade
14/03/2014 Show to everybody Allenamento 14-03-14 alle 11:28 87.08 Km 507 m 03:04:36 28.3 Km\h CANYON AEROAD CF F1O
12/03/2014 Show to everybody Allenamento 12-03-14 alle 10:03 98.81 Km 829 m 03:48:01 26 Km\h BIANCHI centostrade
11/03/2014 Show to everybody Allenamento 11-03-14 alle 13:57 54.61 Km 648 m 02:08:56 25.41 Km\h BIANCHI centostrade
11/03/2014 Show to everybody Allenamento 11-03-14 alle 06:12 18.29 Km 86 m 00:43:27 25.25 Km\h CANYON AEROAD CF F1O
10/03/2014 Show to everybody Allenamento 10-03-14 alle 13:50 52.75 Km 215 m 01:52:02 28.25 Km\h CANYON AEROAD CF F1O
10/03/2014 Show to everybody Allenamento 10-03-14 alle 06:01 18.55 Km 99 m 00:34:53 31.91 Km\h CANYON AEROAD CF F1O
08/03/2014 Show to everybody Allenamento 08-03-14 alle 11:03 40.19 Km 75 m 01:28:09 27.36 Km\h CANYON AEROAD CF F1O
08/03/2014 Show to everybody Allenamento 08-03-14 alle 09:30 45.95 Km 163 m 01:30:02 30.62 Km\h CANYON AEROAD CF F1O
08/03/2014 Show to everybody Allenamento 08-03-14 alle 12:33 20.43 Km 58 m 00:45:33 26.92 Km\h CANYON AEROAD CF F1O
06/03/2014 Show to everybody Allenamento 06-03-14 alle 11:32 83.54 Km 864 m 03:18:18 25.28 Km\h CANYON AEROAD CF F1O
05/03/2014 Show to everybody Allenamento 05-03-14 alle 14:04 50.76 Km 436 m 01:57:31 25.92 Km\h CANYON AEROAD CF F1O
05/03/2014 Show to everybody Allenamento 05-03-14 alle 05:48 18.52 Km 96 m 00:38:52 28.59 Km\h CANYON AEROAD CF F1O
03/03/2014 Show to everybody Allenamento 03-03-14 alle 09:17 149.48 Km 1766 m 05:55:16 25.25 Km\h CANYON AEROAD CF F1O
02/03/2014 Show to everybody Allenamento 02-03-14 alle 08:08 78.99 Km 835 m 02:53:59 27.24 Km\h CANYON AEROAD CF F1O
28/02/2014 Show to everybody Allenamento 28-02-14 alle 09:35 67.56 Km 784 m 02:40:52 25.2 Km\h CANYON AEROAD CF F1O
24/02/2014 Show to everybody Allenamento 24-02-14 alle 13:41 46.77 Km 241 m 01:42:41 27.33 Km\h BIANCHI centostrade
24/02/2014 Show to everybody Allenamento 24-02-14 alle 05:45 18.52 Km 87 m 00:39:23 28.22 Km\h BIANCHI centostrade
23/02/2014 Show to everybody Allenamento 23-02-14 alle 08:24 92.86 Km 820 m 03:27:31 26.85 Km\h CANYON AEROAD CF F1O
22/02/2014 Show to everybody Allenamento 22-02-14 alle 08:36 58.76 Km 165 m 02:05:28 28.1 Km\h CANYON AEROAD CF F1O
21/02/2014 Show to everybody Allenamento 21-02-14 alle 09:00 92.66 Km 822 m 03:18:19 28.04 Km\h BIANCHI centostrade
19/02/2014 Show to everybody Allenamento 19-02-14 alle 11:48 24.35 Km 354 m 00:59:14 24.67 Km\h CANYON AEROAD CF F1O
16/02/2014 Show to everybody Allenamento 16-02-14 alle 08:13 110.52 Km 1373 m 04:18:15 25.68 Km\h CANYON AEROAD CF F1O
15/02/2014 Show to everybody Allenamento 15-02-14 alle 09:48 67.82 Km 775 m 02:39:07 25.58 Km\h CANYON AEROAD CF F1O
14/02/2014 Show to everybody Allenamento 14-02-14 alle 14:22 67.99 Km 746 m 02:38:27 25.75 Km\h BIANCHI centostrade
13/02/2014 Show to everybody Allenamento 13-02-14 alle 14:36 53.86 Km 84 m 02:00:00 26.93 Km\h CANYON AEROAD CF F1O
12/02/2014 Show to everybody Allenamento 12-02-14 alle 09:49 97.79 Km 1108 m 03:58:42 24.58 Km\h CANYON AEROAD CF F1O
08/02/2014 Show to everybody Allenamento 08-02-14 alle 09:03 108.7 Km 1421 m 04:51:42 22.36 Km\h CANYON AEROAD CF F1O
06/02/2014 Show to everybody Allenamento 06-02-14 alle 10:44 66.87 Km 781 m 02:40:10 25.05 Km\h CANYON AEROAD CF F1O
04/02/2014 Show to everybody Allenamento 04-02-14 alle 15:02 31.34 Km 365 m 01:26:15 21.8 Km\h CANYON AEROAD CF F1O
01/02/2014 Show to everybody Allenamento 01-02-14 alle 11:40 31.78 Km 550 m 01:40:29 18.98 Km\h CANYON AEROAD CF F1O
29/01/2014 Show to everybody Allenamento 29-01-14 alle 14:37 52.75 Km 522 m 02:24:09 21.96 Km\h CANYON AEROAD CF F1O
26/01/2014 Show to everybody Allenamento 26-01-14 alle 08:46 76.77 Km 1045 m 03:25:23 22.43 Km\h CANYON AEROAD CF F1O
25/01/2014 Show to everybody Allenamento 25-01-14 alle 08:47 52.52 Km 195 m 01:56:48 26.98 Km\h BIANCHI centostrade
23/01/2014 Show to everybody Allenamento 23-01-14 alle 14:15 29.38 Km 52 m 01:00:16 29.25 Km\h CANYON AEROAD CF F1O
23/01/2014 Show to everybody Allenamento 23-01-14 alle 15:17 13.4 Km 11 m 00:29:58 26.83 Km\h CANYON AEROAD CF F1O
16/01/2014 Show to everybody Allenamento 16-01-14 alle 12:01 74.08 Km 492 m 02:56:24 25.2 Km\h CANYON AEROAD CF F1O
13/01/2014 Show to everybody Allenamento 13-01-2014 alle 10:00:02.000 110.1 Km 815 m 05:01:52 21.88 Km\h CANYON AEROAD CF F1O
11/01/2014 Show to everybody Allenamento 11-01-14 alle 09:26 74.95 Km 97 m 03:00:47 24.87 Km\h CANYON AEROAD CF F1O
10/01/2014 Show to everybody Allenamento 10-01-14 alle 13:59 44.69 Km 665 m 02:03:38 21.69 Km\h CANYON AEROAD CF F1O
08/01/2014 Show to everybody Allenamento 08-01-14 alle 12:28 68.72 Km 479 m 03:02:06 22.64 Km\h CANYON AEROAD CF F1O
07/01/2014 Show to everybody Allenamento 07-01-14 alle 14:17 53.26 Km 105 m 02:00:04 26.61 Km\h CANYON AEROAD CF F1O
06/01/2014 Show to everybody Allenamento 06-01-2014 alle 09:59:33.000 85.24 Km 745 m 04:02:08 21.12 Km\h CANYON AEROAD CF F1O
04/01/2014 Show to everybody Allenamento 04-01-14 alle 09:07 66.94 Km 687 m 03:08:23 21.32 Km\h BIANCHI centostrade
03/01/2014 Show to everybody Allenamento 03-01-14 alle 09:42 83.39 Km 611 m 04:02:39 20.62 Km\h CANYON AEROAD CF F1O
02/01/2014 Show to everybody Allenamento 02-01-14 alle 13:50 53.24 Km 121 m 02:08:12 24.92 Km\h BIANCHI centostrade
01/01/2014 Show to everybody Allenamento 01-01-14 alle 08:40 74.26 Km 583 m 03:00:03 24.75 Km\h CANYON AEROAD CF F1O
15/12/2013 Show to everybody Allenamento 15-12-13 alle 09:03 62.85 Km 569 m 02:40:12 23.54 Km\h BIANCHI centostrade
14/12/2013 Show to everybody Allenamento 14-12-13 alle 12:51 75.41 Km 155 m 02:59:28 25.21 Km\h CANYON AEROAD CF F1O
13/12/2013 Show to everybody Allenamento 13-12-13 alle 12:49 47.65 Km 650 m 02:05:36 22.76 Km\h CANYON AEROAD CF F1O
11/12/2013 Show to everybody Allenamento 11-12-13 alle 12:33 75.03 Km 629 m 03:08:02 23.94 Km\h CANYON AEROAD CF F1O
10/12/2013 Show to everybody Allenamento 10-12-13 alle 13:39 40.53 Km 80 m 01:30:40 26.82 Km\h CANYON AEROAD CF F1O
06/12/2013 Show to everybody Allenamento 06-12-13 alle 08:47 49.75 Km 737 m 02:03:16 24.21 Km\h CANYON AEROAD CF F1O
05/12/2013 Show to everybody Allenamento 05-12-13 alle 11:48 47.19 Km 505 m 02:01:36 23.28 Km\h CANYON AEROAD CF F1O
05/12/2013 Show to everybody Allenamento 05-12-13 alle 13:52 13.84 Km 50 m 00:33:39 24.67 Km\h CANYON AEROAD CF F1O
17/11/2013 Show to everybody Allenamento 17-11-13 alle 09:07 54.24 Km 160 m 01:57:51 27.61 Km\h CANYON AEROAD CF F1O
16/11/2013 Show to everybody Allenamento 16-11-13 alle 09:18 72.16 Km 108 m 02:56:51 24.48 Km\h CANYON AEROAD CF F1O
16/11/2013 Show to everybody Allenamento 16-11-13 alle 12:19 27.37 Km 28 m 00:59:07 27.78 Km\h CANYON AEROAD CF F1O
09/11/2013 Show to everybody Allenamento 09-11-13 alle 08:45 84.47 Km 137 m 03:36:23 23.42 Km\h BIANCHI centostrade
27/10/2013 Show to everybody Allenamento 27-10-2013 alle 07:27:25.000 79.63 Km 1945 m 03:06:47 25.58 Km\h BIANCHI centostrade
24/09/2013 Show to everybody Allenamento 24-09-2013 alle 14:53:43 53.83 Km 433 m 02:00:46 26.74 Km\h BIANCHI centostrade
23/09/2013 Show to everybody Allenamento 23-09-2013 alle 14:28:03 64.6 Km 732 m 02:23:58 26.92 Km\h BIANCHI centostrade
20/09/2013 Show to everybody Allenamento 20-09-2013 alle 10:14:40 111.49 Km 1666 m 04:41:59 23.72 Km\h BIANCHI centostrade
18/09/2013 Show to everybody Allenamento 18-09-2013 alle 14:52:07 52.84 Km 847 m 02:09:19 24.51 Km\h BIANCHI centostrade
12/09/2013 Show to everybody Allenamento 12-09-2013 alle 12:50:18 81.51 Km 753 m 03:04:02 26.57 Km\h BIANCHI centostrade
03/09/2013 Show to everybody Allenamento 03-09-2013 alle 10:28:47 80.33 Km 1592 m 04:09:46 19.3 Km\h BIANCHI centostrade
31/08/2013 Show to everybody TOUR SELLA 61.37 Km 1759 m 03:48:47 16.09 Km\h BIANCHI centostrade
29/08/2013 Show to everybody Allenamento 29-08-2013 alle 09:40:48 37.69 Km 1342 m 02:30:34 15.02 Km\h BIANCHI centostrade
28/08/2013 Show to everybody tratto fina passo campolongo 3.44 Km 181 m 00:17:47 11.62 Km\h BIANCHI centostrade
26/08/2013 Show to everybody scalata passo gardena 19.59 Km 740 m 01:22:13 14.3 Km\h BIANCHI centostrade
14/08/2013 Show to everybody Allenamento 14-08-2013 alle 17:29:12 19.45 Km 794 m 01:20:11 14.56 Km\h BIANCHI centostrade
13/08/2013 Show to everybody Allenamento 13-08-2013 alle 06:44:42 43.49 Km 690 m 01:48:15 24.11 Km\h BIANCHI centostrade
11/08/2013 Show to everybody Allenamento 11-08-2013 alle 07:09:05 97.52 Km 500 m 02:31:26 38.64 Km\h BIANCHI centostrade
10/08/2013 Show to everybody Allenamento 10-08-2013 alle 07:53:01 72.8 Km 785 m 02:59:16 24.37 Km\h BIANCHI centostrade
06/08/2013 Show to everybody allenamento 6ago2013 40.52 Km 213 m 01:30:43 26.8 Km\h BIANCHI centostrade
06/08/2013 Show to everybody allenamento mattudino 6ago2013 43.6 Km 648 m 01:49:27 23.9 Km\h BIANCHI centostrade
04/08/2013 Show to everybody guidonia orvino e ritorno 91.48 Km 1378 m 04:04:42 22.43 Km\h BIANCHI centostrade
01/08/2013 Show to everybody Allenamento 01-08-2013 alle 17:35:31 36.56 Km 670 m 01:36:02 22.84 Km\h BIANCHI centostrade
31/07/2013 Show to everybody track_81492 45.92 Km 656 m 01:49:21 25.2 Km\h BIANCHI centostrade

Show previous years trainings
This user's bikes.
BIANCHI centostrade 67 3986.81 Km 44044 m 155:18:11 26.05 Km/h
CANYON AEROAD CF F1O 81 4845.8 Km 40820 m 189:01:13 26.48 Km/h

250 points
Kilometers
0
Vertical gain
0
Rank:69

Watch ranking »

 

Bike name

Delete this bike?

Now you follow this users and you can compare your trainings

If you stop following this users you will not be able to compare your trainings with his


bdc-forum.it | 2012-2020 Training Camp v.1.0.15